sensor_id;sensor_type;location;lat;lon;timestamp;pressure;altitude;pressure_sealevel;temperature;humidity
56668;BME280;42542;48.360;10.958;2023-05-02T00:02:01;96182.88;;;9.70;100.00
56668;BME280;42542;48.360;10.958;2023-05-02T00:05:07;96174.19;;;9.68;100.00
56668;BME280;42542;48.360;10.958;2023-05-02T00:08:09;96174.81;;;9.62;100.00
56668;BME280;42542;48.360;10.958;2023-05-02T00:11:14;96182.81;;;9.62;100.00
56668;BME280;42542;48.360;10.958;2023-05-02T00:14:17;96176.94;;;9.58;100.00
56668;BME280;42542;48.360;10.958;2023-05-02T00:17:28;96179.63;;;9.58;100.00
56668;BME280;42542;48.360;10.958;2023-05-02T00:20:29;96173.06;;;9.53;100.00
56668;BME280;42542;48.360;10.958;2023-05-02T00:23:32;96181.94;;;9.53;100.00
56668;BME280;42542;48.360;10.958;2023-05-02T00:26:35;96177.91;;;9.49;100.00
56668;BME280;42542;48.360;10.958;2023-05-02T00:29:40;96187.75;;;9.49;100.00
56668;BME280;42542;48.360;10.958;2023-05-02T00:32:44;96197.88;;;9.45;100.00
56668;BME280;42542;48.360;10.958;2023-05-02T00:35:48;96193.69;;;9.43;100.00
56668;BME280;42542;48.360;10.958;2023-05-02T00:38:55;96187.69;;;9.40;100.00
56668;BME280;42542;48.360;10.958;2023-05-02T00:41:58;96187.81;;;9.39;100.00
56668;BME280;42542;48.360;10.958;2023-05-02T00:45:02;96187.31;;;9.35;100.00
56668;BME280;42542;48.360;10.958;2023-05-02T00:48:06;96180.44;;;9.33;100.00
56668;BME280;42542;48.360;10.958;2023-05-02T00:51:10;96171.09;;;9.29;100.00
56668;BME280;42542;48.360;10.958;2023-05-02T00:54:14;96186.25;;;9.28;100.00
56668;BME280;42542;48.360;10.958;2023-05-02T00:57:17;96181.50;;;9.22;100.00
56668;BME280;42542;48.360;10.958;2023-05-02T01:00:19;96177.84;;;9.23;100.00
56668;BME280;42542;48.360;10.958;2023-05-02T01:03:27;96186.03;;;9.22;100.00
56668;BME280;42542;48.360;10.958;2023-05-02T01:13:27;96193.41;;;9.10;100.00
56668;BME280;42542;48.360;10.958;2023-05-02T01:16:31;96190.91;;;9.09;100.00
56668;BME280;42542;48.360;10.958;2023-05-02T01:19:38;96191.06;;;9.07;100.00
56668;BME280;42542;48.360;10.958;2023-05-02T01:22:44;96193.91;;;9.06;100.00
56668;BME280;42542;48.360;10.958;2023-05-02T01:29:13;96197.69;;;9.03;100.00
56668;BME280;42542;48.360;10.958;2023-05-02T01:32:25;96195.34;;;9.00;100.00
56668;BME280;42542;48.360;10.958;2023-05-02T01:35:29;96198.16;;;8.98;100.00
56668;BME280;42542;48.360;10.958;2023-05-02T01:38:36;96199.44;;;8.94;100.00
56668;BME280;42542;48.360;10.958;2023-05-02T01:41:42;96193.72;;;8.89;100.00
56668;BME280;42542;48.360;10.958;2023-05-02T01:44:47;96203.28;;;8.92;100.00
56668;BME280;42542;48.360;10.958;2023-05-02T01:47:55;96206.91;;;8.91;100.00
56668;BME280;42542;48.360;10.958;2023-05-02T01:51:00;96208.06;;;8.88;100.00
56668;BME280;42542;48.360;10.958;2023-05-02T01:54:07;96214.38;;;8.87;100.00
56668;BME280;42542;48.360;10.958;2023-05-02T01:57:10;96218.00;;;8.86;100.00
56668;BME280;42542;48.360;10.958;2023-05-02T02:00:16;96214.69;;;8.84;100.00
56668;BME280;42542;48.360;10.958;2023-05-02T02:03:20;96215.81;;;8.82;100.00
56668;BME280;42542;48.360;10.958;2023-05-02T02:06:24;96207.31;;;8.78;100.00
56668;BME280;42542;48.360;10.958;2023-05-02T02:09:29;96215.59;;;8.75;100.00
56668;BME280;42542;48.360;10.958;2023-05-02T02:12:40;96219.09;;;8.76;100.00
56668;BME280;42542;48.360;10.958;2023-05-02T02:15:46;96211.56;;;8.71;100.00
56668;BME280;42542;48.360;10.958;2023-05-02T02:18:54;96217.56;;;8.73;100.00
56668;BME280;42542;48.360;10.958;2023-05-02T02:22:00;96218.72;;;8.71;100.00
56668;BME280;42542;48.360;10.958;2023-05-02T02:25:07;96218.00;;;8.69;100.00
56668;BME280;42542;48.360;10.958;2023-05-02T02:28:11;96222.66;;;8.67;100.00
56668;BME280;42542;48.360;10.958;2023-05-02T02:31:13;96215.97;;;8.63;100.00
56668;BME280;42542;48.360;10.958;2023-05-02T02:34:16;96213.97;;;8.65;100.00
56668;BME280;42542;48.360;10.958;2023-05-02T02:37:28;96223.94;;;8.63;100.00
56668;BME280;42542;48.360;10.958;2023-05-02T02:40:56;96218.91;;;8.59;100.00
56668;BME280;42542;48.360;10.958;2023-05-02T02:47:28;96230.72;;;8.57;100.00
56668;BME280;42542;48.360;10.958;2023-05-02T02:50:47;96230.88;;;8.55;100.00
56668;BME280;42542;48.360;10.958;2023-05-02T03:01:09;96238.63;;;8.49;100.00
56668;BME280;42542;48.360;10.958;2023-05-02T03:04:17;96249.56;;;8.46;100.00
56668;BME280;42542;48.360;10.958;2023-05-02T03:07:20;96241.69;;;8.44;100.00
56668;BME280;42542;48.360;10.958;2023-05-02T03:10:25;96253.34;;;8.43;100.00
56668;BME280;42542;48.360;10.958;2023-05-02T03:13:28;96257.03;;;8.42;100.00
56668;BME280;42542;48.360;10.958;2023-05-02T03:16:46;96249.31;;;8.39;100.00
56668;BME280;42542;48.360;10.958;2023-05-02T03:19:49;96262.63;;;8.39;100.00
56668;BME280;42542;48.360;10.958;2023-05-02T03:22:50;96265.44;;;8.38;100.00
56668;BME280;42542;48.360;10.958;2023-05-02T03:25:56;96258.72;;;8.34;100.00
56668;BME280;42542;48.360;10.958;2023-05-02T03:29:00;96272.03;;;8.34;100.00
56668;BME280;42542;48.360;10.958;2023-05-02T03:32:08;96272.34;;;8.31;100.00
56668;BME280;42542;48.360;10.958;2023-05-02T03:35:16;96273.28;;;8.30;100.00
56668;BME280;42542;48.360;10.958;2023-05-02T03:38:21;96278.22;;;8.24;100.00
56668;BME280;42542;48.360;10.958;2023-05-02T03:41:23;96268.69;;;8.22;100.00
56668;BME280;42542;48.360;10.958;2023-05-02T03:44:33;96277.97;;;8.18;100.00
56668;BME280;42542;48.360;10.958;2023-05-02T03:47:35;96272.50;;;8.19;100.00
56668;BME280;42542;48.360;10.958;2023-05-02T03:50:38;96269.41;;;8.14;100.00
56668;BME280;42542;48.360;10.958;2023-05-02T03:53:39;96292.25;;;8.17;100.00
56668;BME280;42542;48.360;10.958;2023-05-02T03:56:42;96291.41;;;8.16;100.00
56668;BME280;42542;48.360;10.958;2023-05-02T03:59:56;96278.41;;;8.13;100.00
56668;BME280;42542;48.360;10.958;2023-05-02T04:03:01;96285.69;;;8.11;100.00
56668;BME280;42542;48.360;10.958;2023-05-02T04:06:06;96285.56;;;8.13;100.00
56668;BME280;42542;48.360;10.958;2023-05-02T04:09:09;96300.38;;;8.15;100.00
56668;BME280;42542;48.360;10.958;2023-05-02T04:12:20;96294.91;;;8.17;100.00
56668;BME280;42542;48.360;10.958;2023-05-02T04:15:25;96296.75;;;8.16;100.00
56668;BME280;42542;48.360;10.958;2023-05-02T04:18:28;96296.88;;;8.15;100.00
56668;BME280;42542;48.360;10.958;2023-05-02T04:21:31;96305.03;;;8.13;100.00
56668;BME280;42542;48.360;10.958;2023-05-02T04:24:35;96308.22;;;8.17;100.00
56668;BME280;42542;48.360;10.958;2023-05-02T04:27:37;96305.56;;;8.17;100.00
56668;BME280;42542;48.360;10.958;2023-05-02T04:30:43;96307.38;;;8.16;100.00
56668;BME280;42542;48.360;10.958;2023-05-02T04:33:46;96313.56;;;8.17;100.00
56668;BME280;42542;48.360;10.958;2023-05-02T04:36:53;96313.56;;;8.17;100.00
56668;BME280;42542;48.360;10.958;2023-05-02T04:39:58;96316.22;;;8.17;100.00
56668;BME280;42542;48.360;10.958;2023-05-02T04:43:04;96318.03;;;8.16;100.00
56668;BME280;42542;48.360;10.958;2023-05-02T04:46:16;96322.25;;;8.19;100.00
56668;BME280;42542;48.360;10.958;2023-05-02T04:49:19;96320.44;;;8.19;100.00
56668;BME280;42542;48.360;10.958;2023-05-02T04:52:21;96333.16;;;8.26;100.00
56668;BME280;42542;48.360;10.958;2023-05-02T04:55:23;96331.34;;;8.26;100.00
56668;BME280;42542;48.360;10.958;2023-05-02T04:58:24;96340.69;;;8.30;100.00
56668;BME280;42542;48.360;10.958;2023-05-02T05:01:32;96349.16;;;8.35;100.00
56668;BME280;42542;48.360;10.958;2023-05-02T05:04:36;96336.09;;;8.32;100.00
56668;BME280;42542;48.360;10.958;2023-05-02T05:07:39;96347.84;;;8.39;100.00
56668;BME280;42542;48.360;10.958;2023-05-02T05:10:42;96356.09;;;8.46;100.00
56668;BME280;42542;48.360;10.958;2023-05-02T05:13:44;96349.94;;;8.45;100.00
56668;BME280;42542;48.360;10.958;2023-05-02T05:16:48;96358.50;;;8.49;100.00
56668;BME280;42542;48.360;10.958;2023-05-02T05:19:51;96366.16;;;8.52;100.00
56668;BME280;42542;48.360;10.958;2023-05-02T05:22:54;96367.84;;;8.53;100.00
56668;BME280;42542;48.360;10.958;2023-05-02T05:26:07;96369.94;;;8.59;100.00
56668;BME280;42542;48.360;10.958;2023-05-02T05:29:10;96374.00;;;8.63;100.00
56668;BME280;42542;48.360;10.958;2023-05-02T05:32:14;96369.19;;;8.67;100.00
56668;BME280;42542;48.360;10.958;2023-05-02T05:35:19;96372.56;;;8.69;100.00
56668;BME280;42542;48.360;10.958;2023-05-02T05:38:21;96374.94;;;8.72;100.00
56668;BME280;42542;48.360;10.958;2023-05-02T05:41:25;96377.31;;;8.75;100.00
56668;BME280;42542;48.360;10.958;2023-05-02T05:44:35;96382.19;;;8.79;100.00
56668;BME280;42542;48.360;10.958;2023-05-02T05:47:38;96378.25;;;8.83;100.00
56668;BME280;42542;48.360;10.958;2023-05-02T05:50:40;96385.81;;;8.88;100.00
56668;BME280;42542;48.360;10.958;2023-05-02T05:53:43;96389.69;;;8.93;100.00
56668;BME280;42542;48.360;10.958;2023-05-02T05:56:48;96398.97;;;8.99;100.00
56668;BME280;42542;48.360;10.958;2023-05-02T05:59:53;96391.47;;;9.02;100.00
56668;BME280;42542;48.360;10.958;2023-05-02T06:02:57;96396.22;;;9.09;100.00
56668;BME280;42542;48.360;10.958;2023-05-02T06:06:02;96393.28;;;9.12;100.00
56668;BME280;42542;48.360;10.958;2023-05-02T06:09:05;96391.69;;;9.19;100.00
56668;BME280;42542;48.360;10.958;2023-05-02T06:12:08;96389.53;;;9.22;100.00
56668;BME280;42542;48.360;10.958;2023-05-02T06:15:11;96398.63;;;9.29;100.00
56668;BME280;42542;48.360;10.958;2023-05-02T06:18:14;96400.03;;;9.33;100.00
56668;BME280;42542;48.360;10.958;2023-05-02T06:21:16;96409.56;;;9.36;100.00
56668;BME280;42542;48.360;10.958;2023-05-02T06:24:20;96412.47;;;9.43;100.00
56668;BME280;42542;48.360;10.958;2023-05-02T06:27:21;96410.19;;;9.48;100.00
56668;BME280;42542;48.360;10.958;2023-05-02T06:30:25;96416.75;;;9.53;100.00
56668;BME280;42542;48.360;10.958;2023-05-02T06:33:32;96421.66;;;9.58;100.00
56668;BME280;42542;48.360;10.958;2023-05-02T06:36:35;96415.47;;;9.57;100.00
56668;BME280;42542;48.360;10.958;2023-05-02T06:39:38;96432.25;;;9.67;100.00
56668;BME280;42542;48.360;10.958;2023-05-02T06:42:40;96432.78;;;9.71;100.00
56668;BME280;42542;48.360;10.958;2023-05-02T06:45:44;96434.28;;;9.73;100.00
56668;BME280;42542;48.360;10.958;2023-05-02T06:48:49;96443.84;;;9.76;100.00
56668;BME280;42542;48.360;10.958;2023-05-02T06:51:51;96438.34;;;9.77;100.00
56668;BME280;42542;48.360;10.958;2023-05-02T06:54:53;96456.44;;;9.84;100.00
56668;BME280;42542;48.360;10.958;2023-05-02T06:57:58;96457.97;;;9.86;100.00
56668;BME280;42542;48.360;10.958;2023-05-02T07:01:00;96462.28;;;9.87;100.00
56668;BME280;42542;48.360;10.958;2023-05-02T07:04:01;96460.19;;;9.91;100.00
56668;BME280;42542;48.360;10.958;2023-05-02T07:07:09;96461.03;;;9.91;100.00
56668;BME280;42542;48.360;10.958;2023-05-02T07:10:11;96460.03;;;9.92;100.00
56668;BME280;42542;48.360;10.958;2023-05-02T07:13:15;96469.41;;;9.96;100.00
56668;BME280;42542;48.360;10.958;2023-05-02T07:16:18;96465.47;;;10.00;100.00
56668;BME280;42542;48.360;10.958;2023-05-02T07:19:21;96466.31;;;10.01;100.00
56668;BME280;42542;48.360;10.958;2023-05-02T07:22:23;96469.50;;;10.04;100.00
56668;BME280;42542;48.360;10.958;2023-05-02T07:25:27;96470.69;;;10.10;100.00
56668;BME280;42542;48.360;10.958;2023-05-02T07:28:32;96478.44;;;10.13;100.00
56668;BME280;42542;48.360;10.958;2023-05-02T07:31:35;96476.72;;;10.22;100.00
56668;BME280;42542;48.360;10.958;2023-05-02T07:34:41;96463.88;;;10.25;100.00
56668;BME280;42542;48.360;10.958;2023-05-02T07:37:46;96472.09;;;10.32;100.00
56668;BME280;42542;48.360;10.958;2023-05-02T07:40:50;96471.19;;;10.41;100.00
56668;BME280;42542;48.360;10.958;2023-05-02T07:43:55;96479.28;;;10.49;100.00
56668;BME280;42542;48.360;10.958;2023-05-02T07:47:00;96469.63;;;10.56;100.00
56668;BME280;42542;48.360;10.958;2023-05-02T07:50:07;96476.03;;;10.63;100.00
56668;BME280;42542;48.360;10.958;2023-05-02T07:53:13;96479.63;;;10.72;100.00
56668;BME280;42542;48.360;10.958;2023-05-02T07:56:17;96465.28;;;10.81;100.00
56668;BME280;42542;48.360;10.958;2023-05-02T07:59:23;96470.69;;;10.89;100.00
56668;BME280;42542;48.360;10.958;2023-05-02T08:02:25;96475.94;;;10.99;100.00
56668;BME280;42542;48.360;10.958;2023-05-02T08:05:31;96478.13;;;11.03;100.00
56668;BME280;42542;48.360;10.958;2023-05-02T08:08:36;96476.00;;;11.07;100.00
56668;BME280;42542;48.360;10.958;2023-05-02T08:11:41;96483.53;;;11.11;100.00
56668;BME280;42542;48.360;10.958;2023-05-02T08:14:45;96488.41;;;11.16;100.00
56668;BME280;42542;48.360;10.958;2023-05-02T08:17:50;96486.94;;;11.21;100.00
56668;BME280;42542;48.360;10.958;2023-05-02T08:20:57;96484.31;;;11.29;100.00
56668;BME280;42542;48.360;10.958;2023-05-02T08:23:59;96490.00;;;11.34;100.00
56668;BME280;42542;48.360;10.958;2023-05-02T08:27:03;96493.72;;;11.42;100.00
56668;BME280;42542;48.360;10.958;2023-05-02T08:30:06;96488.06;;;11.45;100.00
56668;BME280;42542;48.360;10.958;2023-05-02T08:33:14;96497.78;;;11.54;100.00
56668;BME280;42542;48.360;10.958;2023-05-02T08:36:20;96499.00;;;11.59;100.00
56668;BME280;42542;48.360;10.958;2023-05-02T08:39:25;96492.16;;;11.65;100.00
56668;BME280;42542;48.360;10.958;2023-05-02T08:42:32;96501.06;;;11.73;100.00
56668;BME280;42542;48.360;10.958;2023-05-02T08:45:38;96505.81;;;11.80;99.86
56668;BME280;42542;48.360;10.958;2023-05-02T08:48:43;96507.81;;;11.86;98.64
56668;BME280;42542;48.360;10.958;2023-05-02T08:51:48;96510.00;;;11.90;97.62
56668;BME280;42542;48.360;10.958;2023-05-02T08:54:53;96515.72;;;11.95;97.14
56668;BME280;42542;48.360;10.958;2023-05-02T08:57:56;96512.72;;;11.98;95.86
56668;BME280;42542;48.360;10.958;2023-05-02T09:01:00;96520.78;;;12.06;96.42
56668;BME280;42542;48.360;10.958;2023-05-02T09:04:06;96521.94;;;12.12;96.19
56668;BME280;42542;48.360;10.958;2023-05-02T09:07:07;96522.47;;;12.16;95.85
56668;BME280;42542;48.360;10.958;2023-05-02T09:10:12;96528.34;;;12.19;94.53
56668;BME280;42542;48.360;10.958;2023-05-02T09:16:38;96532.53;;;12.22;92.36
56668;BME280;42542;48.360;10.958;2023-05-02T09:19:41;96547.13;;;12.27;91.14
56668;BME280;42542;48.360;10.958;2023-05-02T09:22:50;96534.25;;;12.31;91.07
56668;BME280;42542;48.360;10.958;2023-05-02T09:25:53;96546.44;;;12.33;90.27
56668;BME280;42542;48.360;10.958;2023-05-02T09:28:55;96541.63;;;12.37;89.93
56668;BME280;42542;48.360;10.958;2023-05-02T09:31:59;96544.47;;;12.43;90.18
56668;BME280;42542;48.360;10.958;2023-05-02T09:35:04;96549.00;;;12.51;90.06
56668;BME280;42542;48.360;10.958;2023-05-02T09:38:18;96541.63;;;12.61;90.25
56668;BME280;42542;48.360;10.958;2023-05-02T09:41:20;96540.47;;;12.64;89.96
56668;BME280;42542;48.360;10.958;2023-05-02T09:44:26;96546.53;;;12.74;88.11
56668;BME280;42542;48.360;10.958;2023-05-02T09:47:28;96549.84;;;12.76;87.85
56668;BME280;42542;48.360;10.958;2023-05-02T09:50:32;96549.69;;;12.77;88.06
56668;BME280;42542;48.360;10.958;2023-05-02T09:53:42;96556.41;;;12.81;87.32
56668;BME280;42542;48.360;10.958;2023-05-02T09:56:55;96558.91;;;12.83;85.39
56668;BME280;42542;48.360;10.958;2023-05-02T09:59:58;96563.09;;;12.85;85.25
56668;BME280;42542;48.360;10.958;2023-05-02T10:03:04;96562.78;;;12.88;86.21
56668;BME280;42542;48.360;10.958;2023-05-02T10:06:08;96570.84;;;12.88;85.81
56668;BME280;42542;48.360;10.958;2023-05-02T10:09:13;96569.47;;;12.84;85.24
56668;BME280;42542;48.360;10.958;2023-05-02T10:12:25;96570.16;;;12.86;85.32
56668;BME280;42542;48.360;10.958;2023-05-02T10:15:30;96569.31;;;12.94;86.21
56668;BME280;42542;48.360;10.958;2023-05-02T10:18:55;96573.16;;;13.00;86.59
56668;BME280;42542;48.360;10.958;2023-05-02T10:22:01;96568.47;;;13.02;86.98
56668;BME280;42542;48.360;10.958;2023-05-02T10:25:05;96564.97;;;13.09;86.55
56668;BME280;42542;48.360;10.958;2023-05-02T10:28:09;96558.09;;;13.15;85.77
56668;BME280;42542;48.360;10.958;2023-05-02T10:31:12;96556.25;;;13.23;83.01
56668;BME280;42542;48.360;10.958;2023-05-02T10:34:15;96561.94;;;13.37;83.67
56668;BME280;42542;48.360;10.958;2023-05-02T10:37:22;96561.38;;;13.49;82.55
56668;BME280;42542;48.360;10.958;2023-05-02T10:40:27;96563.88;;;13.59;82.26
56668;BME280;42542;48.360;10.958;2023-05-02T10:43:35;96551.31;;;13.59;79.59
56668;BME280;42542;48.360;10.958;2023-05-02T10:46:41;96549.63;;;13.58;79.79
56668;BME280;42542;48.360;10.958;2023-05-02T10:49:56;96552.44;;;13.65;80.31
56668;BME280;42542;48.360;10.958;2023-05-02T10:56:26;96535.94;;;13.76;80.99
56668;BME280;42542;48.360;10.958;2023-05-02T10:59:39;96533.22;;;13.84;81.01
56668;BME280;42542;48.360;10.958;2023-05-02T11:06:04;96530.03;;;13.89;78.73
56668;BME280;42542;48.360;10.958;2023-05-02T11:12:52;96533.38;;;13.91;77.78
56668;BME280;42542;48.360;10.958;2023-05-02T11:15:55;96531.84;;;13.96;79.26
56668;BME280;42542;48.360;10.958;2023-05-02T11:18:59;96533.13;;;14.08;78.88
56668;BME280;42542;48.360;10.958;2023-05-02T11:25:37;96528.50;;;14.25;77.02
56668;BME280;42542;48.360;10.958;2023-05-02T11:28:43;96528.41;;;14.41;78.15
56668;BME280;42542;48.360;10.958;2023-05-02T11:31:52;96531.91;;;14.50;75.35
56668;BME280;42542;48.360;10.958;2023-05-02T11:34:56;96517.25;;;14.53;75.28
56668;BME280;42542;48.360;10.958;2023-05-02T11:38:01;96519.22;;;14.59;74.96
56668;BME280;42542;48.360;10.958;2023-05-02T11:41:04;96515.66;;;14.66;76.28
56668;BME280;42542;48.360;10.958;2023-05-02T11:44:06;96528.88;;;14.76;74.89
56668;BME280;42542;48.360;10.958;2023-05-02T11:47:08;96513.06;;;14.73;74.43
56668;BME280;42542;48.360;10.958;2023-05-02T11:50:11;96532.03;;;14.79;72.90
56668;BME280;42542;48.360;10.958;2023-05-02T11:53:16;96521.31;;;14.71;71.42
56668;BME280;42542;48.360;10.958;2023-05-02T11:56:24;96515.66;;;14.66;72.58
56668;BME280;42542;48.360;10.958;2023-05-02T11:59:29;96523.38;;;14.69;72.46
56668;BME280;42542;48.360;10.958;2023-05-02T12:05:39;96526.25;;;14.68;73.33
56668;BME280;42542;48.360;10.958;2023-05-02T12:09:09;96525.56;;;14.66;72.03
56668;BME280;42542;48.360;10.958;2023-05-02T12:12:27;96529.75;;;14.68;72.46
56668;BME280;42542;48.360;10.958;2023-05-02T12:15:35;96519.53;;;14.64;71.12
56668;BME280;42542;48.360;10.958;2023-05-02T12:18:41;96521.97;;;14.73;71.37
56668;BME280;42542;48.360;10.958;2023-05-02T12:21:43;96515.59;;;14.74;72.33
56668;BME280;42542;48.360;10.958;2023-05-02T12:24:45;96524.97;;;14.78;72.07
56668;BME280;42542;48.360;10.958;2023-05-02T12:28:04;96512.00;;;14.82;70.35
56668;BME280;42542;48.360;10.958;2023-05-02T12:31:09;96522.69;;;14.90;69.18
56668;BME280;42542;48.360;10.958;2023-05-02T12:34:30;96519.34;;;14.88;68.27
56668;BME280;42542;48.360;10.958;2023-05-02T12:37:35;96520.56;;;15.00;70.59
56668;BME280;42542;48.360;10.958;2023-05-02T12:40:53;96519.66;;;15.08;67.96
56668;BME280;42542;48.360;10.958;2023-05-02T12:43:59;96522.00;;;15.11;65.28
56668;BME280;42542;48.360;10.958;2023-05-02T12:47:02;96516.53;;;15.19;66.84
56668;BME280;42542;48.360;10.958;2023-05-02T12:50:04;96513.47;;;15.22;65.88
56668;BME280;42542;48.360;10.958;2023-05-02T12:53:07;96513.03;;;15.33;65.56
56668;BME280;42542;48.360;10.958;2023-05-02T12:56:10;96494.50;;;15.53;67.37
56668;BME280;42542;48.360;10.958;2023-05-02T12:59:28;96509.06;;;15.73;65.58
56668;BME280;42542;48.360;10.958;2023-05-02T13:02:31;96501.53;;;15.83;64.58
56668;BME280;42542;48.360;10.958;2023-05-02T13:05:35;96498.34;;;15.94;62.98
56668;BME280;42542;48.360;10.958;2023-05-02T13:08:37;96506.69;;;16.14;63.37
56668;BME280;42542;48.360;10.958;2023-05-02T13:11:42;96500.88;;;16.32;64.14
56668;BME280;42542;48.360;10.958;2023-05-02T13:14:45;96495.69;;;16.52;61.50
56668;BME280;42542;48.360;10.958;2023-05-02T13:17:49;96499.06;;;16.75;61.89
56668;BME280;42542;48.360;10.958;2023-05-02T13:20:51;96505.53;;;17.02;59.96
56668;BME280;42542;48.360;10.958;2023-05-02T13:23:54;96508.56;;;17.13;59.42
56668;BME280;42542;48.360;10.958;2023-05-02T13:26:57;96495.47;;;17.17;59.51
56668;BME280;42542;48.360;10.958;2023-05-02T13:30:00;96491.19;;;17.29;59.63
56668;BME280;42542;48.360;10.958;2023-05-02T13:33:08;96496.94;;;17.47;58.28
56668;BME280;42542;48.360;10.958;2023-05-02T13:36:11;96487.09;;;17.61;55.78
56668;BME280;42542;48.360;10.958;2023-05-02T13:39:13;96494.28;;;17.82;57.59
56668;BME280;42542;48.360;10.958;2023-05-02T13:42:15;96491.69;;;18.08;55.14
56668;BME280;42542;48.360;10.958;2023-05-02T13:45:17;96481.75;;;18.22;53.83
56668;BME280;42542;48.360;10.958;2023-05-02T13:48:22;96487.25;;;18.48;54.19
56668;BME280;42542;48.360;10.958;2023-05-02T13:51:24;96485.44;;;18.82;54.56
56668;BME280;42542;48.360;10.958;2023-05-02T13:54:28;96482.34;;;18.98;51.78
56668;BME280;42542;48.360;10.958;2023-05-02T13:57:29;96492.16;;;19.12;51.81
56668;BME280;42542;48.360;10.958;2023-05-02T14:00:31;96496.97;;;19.23;49.38
56668;BME280;42542;48.360;10.958;2023-05-02T14:03:37;96487.38;;;19.07;48.06
56668;BME280;42542;48.360;10.958;2023-05-02T14:06:43;96484.84;;;19.06;47.95
56668;BME280;42542;48.360;10.958;2023-05-02T14:09:47;96483.38;;;19.10;46.38
56668;BME280;42542;48.360;10.958;2023-05-02T14:12:50;96484.22;;;19.10;45.55
56668;BME280;42542;48.360;10.958;2023-05-02T14:15:54;96477.75;;;19.18;46.53
56668;BME280;42542;48.360;10.958;2023-05-02T14:18:57;96485.28;;;19.49;47.06
56668;BME280;42542;48.360;10.958;2023-05-02T14:21:59;96475.22;;;19.63;46.13
56668;BME280;42542;48.360;10.958;2023-05-02T14:25:04;96487.09;;;19.75;43.40
56668;BME280;42542;48.360;10.958;2023-05-02T14:28:06;96484.97;;;19.83;44.34
56668;BME280;42542;48.360;10.958;2023-05-02T14:31:09;96490.25;;;19.72;44.60
56668;BME280;42542;48.360;10.958;2023-05-02T14:34:10;96489.88;;;19.48;45.35
56668;BME280;42542;48.360;10.958;2023-05-02T14:37:14;96486.72;;;19.32;45.14
56668;BME280;42542;48.360;10.958;2023-05-02T14:40:16;96495.28;;;19.22;45.38
56668;BME280;42542;48.360;10.958;2023-05-02T14:43:19;96495.50;;;19.01;45.48
56668;BME280;42542;48.360;10.958;2023-05-02T14:46:23;96493.56;;;18.68;46.42
56668;BME280;42542;48.360;10.958;2023-05-02T14:49:26;96498.03;;;18.35;48.18
56668;BME280;42542;48.360;10.958;2023-05-02T14:52:28;96503.13;;;18.04;48.44
56668;BME280;42542;48.360;10.958;2023-05-02T14:55:35;96509.47;;;17.55;50.02
56668;BME280;42542;48.360;10.958;2023-05-02T14:58:37;96519.88;;;17.02;53.64
56668;BME280;42542;48.360;10.958;2023-05-02T15:01:40;96522.78;;;16.79;55.32
56668;BME280;42542;48.360;10.958;2023-05-02T15:04:43;96533.94;;;16.55;56.06
56668;BME280;42542;48.360;10.958;2023-05-02T15:07:46;96536.88;;;16.39;56.23
56668;BME280;42542;48.360;10.958;2023-05-02T15:10:49;96538.78;;;16.45;57.04
56668;BME280;42542;48.360;10.958;2023-05-02T15:13:52;96551.53;;;16.51;57.11
56668;BME280;42542;48.360;10.958;2023-05-02T15:16:57;96549.59;;;16.45;55.82
56668;BME280;42542;48.360;10.958;2023-05-02T15:20:00;96547.06;;;16.44;55.33
56668;BME280;42542;48.360;10.958;2023-05-02T15:23:02;96553.81;;;16.33;55.31
56668;BME280;42542;48.360;10.958;2023-05-02T15:26:05;96555.41;;;16.27;56.29
56668;BME280;42542;48.360;10.958;2023-05-02T15:29:09;96554.69;;;16.19;56.69
56668;BME280;42542;48.360;10.958;2023-05-02T15:32:12;96563.31;;;16.14;56.47
56668;BME280;42542;48.360;10.958;2023-05-02T15:35:15;96562.41;;;16.07;56.95
56668;BME280;42542;48.360;10.958;2023-05-02T15:38:19;96567.06;;;15.98;57.09
56668;BME280;42542;48.360;10.958;2023-05-02T15:41:21;96571.16;;;15.94;57.73
56668;BME280;42542;48.360;10.958;2023-05-02T15:44:23;96580.81;;;15.89;58.44
56668;BME280;42542;48.360;10.958;2023-05-02T15:47:26;96588.44;;;15.85;59.03
56668;BME280;42542;48.360;10.958;2023-05-02T15:50:29;96590.00;;;15.80;60.22
56668;BME280;42542;48.360;10.958;2023-05-02T15:53:32;96600.59;;;15.67;61.15
56668;BME280;42542;48.360;10.958;2023-05-02T15:56:35;96599.00;;;15.57;62.52
56668;BME280;42542;48.360;10.958;2023-05-02T15:59:37;96608.88;;;15.42;63.97
56668;BME280;42542;48.360;10.958;2023-05-02T16:02:41;96607.53;;;15.23;64.75
56668;BME280;42542;48.360;10.958;2023-05-02T16:05:44;96608.88;;;15.05;65.29
56668;BME280;42542;48.360;10.958;2023-05-02T16:08:47;96603.31;;;14.83;65.79
56668;BME280;42542;48.360;10.958;2023-05-02T16:11:49;96603.13;;;14.62;65.34
56668;BME280;42542;48.360;10.958;2023-05-02T16:14:51;96619.78;;;14.58;65.74
56668;BME280;42542;48.360;10.958;2023-05-02T16:17:54;96608.59;;;14.46;66.86
56668;BME280;42542;48.360;10.958;2023-05-02T16:20:57;96613.00;;;14.39;67.83
56668;BME280;42542;48.360;10.958;2023-05-02T16:24:00;96621.75;;;14.33;67.63
56668;BME280;42542;48.360;10.958;2023-05-02T16:27:02;96607.84;;;14.21;68.37
56668;BME280;42542;48.360;10.958;2023-05-02T16:30:04;96618.16;;;14.01;69.30
56668;BME280;42542;48.360;10.958;2023-05-02T16:33:07;96624.41;;;13.94;70.66
56668;BME280;42542;48.360;10.958;2023-05-02T16:36:09;96639.88;;;13.84;71.52
56668;BME280;42542;48.360;10.958;2023-05-02T16:39:11;96643.75;;;13.81;72.00
56668;BME280;42542;48.360;10.958;2023-05-02T16:42:13;96637.22;;;13.76;73.15
56668;BME280;42542;48.360;10.958;2023-05-02T16:45:15;96640.94;;;13.75;73.20
56668;BME280;42542;48.360;10.958;2023-05-02T16:48:17;96653.53;;;13.74;74.40